sensor_id;sensor_type;location;lat;lon;timestamp;pressure;altitude;pressure_sealevel;temperature;humidity
9261;BME280;4667;42.726;23.252;2023-09-08T07:59:13;95452.56;;;22.80;39.11
9261;BME280;4667;42.726;23.252;2023-09-08T08:01:39;95500.00;;;23.58;37.68
9261;BME280;4667;42.726;23.252;2023-09-08T08:04:06;95712.97;;;25.35;37.57
9261;BME280;4667;42.726;23.252;2023-09-08T08:06:33;95707.78;;;25.84;35.45
9261;BME280;4667;42.726;23.252;2023-09-08T08:09:00;95691.50;;;25.93;34.33
9261;BME280;4667;42.726;23.252;2023-09-08T08:11:27;95522.91;;;25.15;35.12
9261;BME280;4667;42.726;23.252;2023-09-08T08:13:54;95446.78;;;25.10;34.21
9261;BME280;4667;42.726;23.252;2023-09-08T08:16:23;95423.53;;;25.30;32.66
9261;BME280;4667;42.726;23.252;2023-09-08T08:18:50;95130.44;;;23.49;31.73
9261;BME280;4667;42.726;23.252;2023-09-08T08:21:16;95676.66;;;27.21;31.00
9261;BME280;4667;42.726;23.252;2023-09-08T08:23:43;95711.34;;;27.84;30.45
9261;BME280;4667;42.726;23.252;2023-09-08T08:26:10;95468.03;;;26.74;29.98
9261;BME280;4667;42.726;23.252;2023-09-08T08:28:37;95496.59;;;27.59;29.78
9261;BME280;4667;42.726;23.252;2023-09-08T08:31:04;95364.50;;;27.21;28.60
9261;BME280;4667;42.726;23.252;2023-09-08T08:33:32;95683.13;;;29.50;28.38
9261;BME280;4667;42.726;23.252;2023-09-08T08:35:59;95697.56;;;29.93;28.24
9261;BME280;4667;42.726;23.252;2023-09-08T08:38:26;95693.00;;;29.78;26.70
9261;BME280;4667;42.726;23.252;2023-09-08T08:40:53;95684.63;;;29.67;26.99
9261;BME280;4667;42.726;23.252;2023-09-08T08:43:21;95056.31;;;26.02;27.82
9261;BME280;4667;42.726;23.252;2023-09-08T08:45:50;95656.34;;;29.91;26.23
9261;BME280;4667;42.726;23.252;2023-09-08T08:48:18;95681.88;;;30.75;25.48
9261;BME280;4667;42.726;23.252;2023-09-08T08:50:48;95587.03;;;30.27;25.18
9261;BME280;4667;42.726;23.252;2023-09-08T08:53:17;95451.47;;;29.54;25.38
9261;BME280;4667;42.726;23.252;2023-09-08T08:55:45;95675.31;;;30.30;25.60
9261;BME280;4667;42.726;23.252;2023-09-08T08:58:12;95531.94;;;28.45;26.82
9261;BME280;4667;42.726;23.252;2023-09-08T09:00:40;95409.56;;;27.45;27.53
9261;BME280;4667;42.726;23.252;2023-09-08T09:03:09;95683.63;;;28.66;27.90
9261;BME280;4667;42.726;23.252;2023-09-08T09:05:36;95686.06;;;28.40;28.19
9261;BME280;4667;42.726;23.252;2023-09-08T09:08:06;95689.78;;;28.04;29.70
9261;BME280;4667;42.726;23.252;2023-09-08T09:10:33;95670.78;;;27.88;29.57
9261;BME280;4667;42.726;23.252;2023-09-08T09:13:00;95666.06;;;27.85;29.98
9261;BME280;4667;42.726;23.252;2023-09-08T09:15:28;95684.44;;;27.91;29.25
9261;BME280;4667;42.726;23.252;2023-09-08T09:18:02;95681.94;;;27.58;29.53
9261;BME280;4667;42.726;23.252;2023-09-08T09:20:30;95685.25;;;27.24;30.68
9261;BME280;4667;42.726;23.252;2023-09-08T09:22:57;95698.81;;;27.11;30.76
9261;BME280;4667;42.726;23.252;2023-09-08T09:25:26;95540.03;;;26.14;31.12
9261;BME280;4667;42.726;23.252;2023-09-08T09:27:54;95688.81;;;27.28;30.81
9261;BME280;4667;42.726;23.252;2023-09-08T09:30:22;95457.19;;;25.93;31.51
9261;BME280;4667;42.726;23.252;2023-09-08T09:32:58;95492.34;;;26.86;30.78
9261;BME280;4667;42.726;23.252;2023-09-08T09:35:39;95677.09;;;28.23;28.58
9261;BME280;4667;42.726;23.252;2023-09-08T09:38:06;95687.19;;;28.23;29.11
9261;BME280;4667;42.726;23.252;2023-09-08T09:40:35;95680.38;;;28.45;28.46
9261;BME280;4667;42.726;23.252;2023-09-08T09:43:02;95593.94;;;27.80;29.18
9261;BME280;4667;42.726;23.252;2023-09-08T09:45:30;95691.06;;;27.66;29.94
9261;BME280;4667;42.726;23.252;2023-09-08T09:47:57;95577.19;;;26.66;30.20
9261;BME280;4667;42.726;23.252;2023-09-08T09:50:28;95690.69;;;26.99;30.85
9261;BME280;4667;42.726;23.252;2023-09-08T09:52:57;95686.63;;;26.93;31.64
9261;BME280;4667;42.726;23.252;2023-09-08T09:55:24;95681.00;;;26.86;31.49
9261;BME280;4667;42.726;23.252;2023-09-08T09:57:55;95681.88;;;26.90;31.90
9261;BME280;4667;42.726;23.252;2023-09-08T10:00:24;95630.97;;;26.67;31.75
9261;BME280;4667;42.726;23.252;2023-09-08T10:02:51;95676.81;;;26.76;31.71
9261;BME280;4667;42.726;23.252;2023-09-08T10:05:18;95538.59;;;26.04;31.91
9261;BME280;4667;42.726;23.252;2023-09-08T10:07:46;95583.06;;;26.56;32.02
9261;BME280;4667;42.726;23.252;2023-09-08T10:10:13;95323.41;;;25.10;32.02
9261;BME280;4667;42.726;23.252;2023-09-08T10:12:43;95544.94;;;27.01;31.84
9261;BME280;4667;42.726;23.252;2023-09-08T10:15:12;95531.75;;;27.00;30.29
9261;BME280;4667;42.726;23.252;2023-09-08T10:17:40;95587.72;;;27.52;30.25
9261;BME280;4667;42.726;23.252;2023-09-08T10:20:10;95527.22;;;27.32;30.08
9261;BME280;4667;42.726;23.252;2023-09-08T10:22:39;95655.69;;;28.18;30.52
9261;BME280;4667;42.726;23.252;2023-09-08T10:25:08;95567.56;;;27.65;30.85
9261;BME280;4667;42.726;23.252;2023-09-08T10:27:36;95642.03;;;28.31;30.46
9261;BME280;4667;42.726;23.252;2023-09-08T10:30:04;95635.94;;;28.34;30.50
9261;BME280;4667;42.726;23.252;2023-09-08T10:32:34;95500.03;;;27.12;30.47
9261;BME280;4667;42.726;23.252;2023-09-08T10:35:03;95614.28;;;27.74;31.32
9261;BME280;4667;42.726;23.252;2023-09-08T10:37:31;95640.28;;;27.91;31.01
9261;BME280;4667;42.726;23.252;2023-09-08T10:40:22;95643.00;;;28.07;31.02
9261;BME280;4667;42.726;23.252;2023-09-08T10:42:49;95583.16;;;27.99;31.12
9261;BME280;4667;42.726;23.252;2023-09-08T10:45:31;95486.47;;;27.72;29.77
9261;BME280;4667;42.726;23.252;2023-09-08T10:48:00;95605.84;;;29.09;29.43
9261;BME280;4667;42.726;23.252;2023-09-08T10:50:30;95457.81;;;27.71;29.47
9261;BME280;4667;42.726;23.252;2023-09-08T10:53:06;95508.50;;;27.86;30.45
9261;BME280;4667;42.726;23.252;2023-09-08T10:55:40;95564.03;;;27.92;30.24
9261;BME280;4667;42.726;23.252;2023-09-08T10:58:09;95627.69;;;28.62;29.66
9261;BME280;4667;42.726;23.252;2023-09-08T11:00:44;95629.78;;;29.23;28.93
9261;BME280;4667;42.726;23.252;2023-09-08T11:03:13;95310.88;;;27.62;28.74
9261;BME280;4667;42.726;23.252;2023-09-08T11:05:41;95469.75;;;29.37;27.08
9261;BME280;4667;42.726;23.252;2023-09-08T11:08:09;95622.09;;;31.12;26.27
9261;BME280;4667;42.726;23.252;2023-09-08T11:10:37;95631.94;;;31.84;26.44
9261;BME280;4667;42.726;23.252;2023-09-08T11:13:06;95476.75;;;31.27;24.54
9261;BME280;4667;42.726;23.252;2023-09-08T11:15:33;95607.09;;;32.37;24.39
9261;BME280;4667;42.726;23.252;2023-09-08T11:18:05;95545.16;;;32.52;24.60
9261;BME280;4667;42.726;23.252;2023-09-08T11:20:34;95484.53;;;32.25;23.48
9261;BME280;4667;42.726;23.252;2023-09-08T11:23:01;95602.38;;;32.89;24.00
9261;BME280;4667;42.726;23.252;2023-09-08T11:25:29;95601.91;;;32.83;23.84
9261;BME280;4667;42.726;23.252;2023-09-08T11:27:58;95438.19;;;31.77;24.00
9261;BME280;4667;42.726;23.252;2023-09-08T11:30:26;95596.94;;;32.93;23.25
9261;BME280;4667;42.726;23.252;2023-09-08T11:32:53;95600.44;;;32.93;23.97
9261;BME280;4667;42.726;23.252;2023-09-08T11:35:20;95602.88;;;33.16;23.93
9261;BME280;4667;42.726;23.252;2023-09-08T11:37:48;95483.59;;;32.62;23.46
9261;BME280;4667;42.726;23.252;2023-09-08T11:40:17;95395.00;;;32.48;23.31
9261;BME280;4667;42.726;23.252;2023-09-08T11:42:48;95581.22;;;33.80;23.19
9261;BME280;4667;42.726;23.252;2023-09-08T11:45:16;95585.41;;;33.38;22.74
9261;BME280;4667;42.726;23.252;2023-09-08T11:47:46;95587.03;;;33.54;23.11
9261;BME280;4667;42.726;23.252;2023-09-08T11:50:15;95576.47;;;33.45;23.19
9261;BME280;4667;42.726;23.252;2023-09-08T11:52:43;95567.81;;;33.36;22.85
9261;BME280;4667;42.726;23.252;2023-09-08T11:55:12;95572.97;;;33.62;22.44
9261;BME280;4667;42.726;23.252;2023-09-08T11:57:40;95578.75;;;33.40;22.66
9261;BME280;4667;42.726;23.252;2023-09-08T12:00:08;95432.78;;;32.39;23.60
9261;BME280;4667;42.726;23.252;2023-09-08T12:02:38;95570.81;;;32.99;24.11
9261;BME280;4667;42.726;23.252;2023-09-08T12:05:05;95566.22;;;33.28;23.22
9261;BME280;4667;42.726;23.252;2023-09-08T12:07:32;95563.84;;;33.12;23.59
9261;BME280;4667;42.726;23.252;2023-09-08T12:10:07;95557.75;;;33.65;23.80
9261;BME280;4667;42.726;23.252;2023-09-08T12:12:41;95537.69;;;33.25;22.64
9261;BME280;4667;42.726;23.252;2023-09-08T12:15:09;95558.00;;;33.21;23.50
9261;BME280;4667;42.726;23.252;2023-09-08T12:17:46;95569.00;;;33.38;23.52
9261;BME280;4667;42.726;23.252;2023-09-08T12:20:14;95562.34;;;33.36;23.41
9261;BME280;4667;42.726;23.252;2023-09-08T12:22:47;95503.28;;;33.06;22.31
9261;BME280;4667;42.726;23.252;2023-09-08T12:25:14;95561.63;;;33.46;22.04
9261;BME280;4667;42.726;23.252;2023-09-08T12:27:44;95546.97;;;32.92;23.33
9261;BME280;4667;42.726;23.252;2023-09-08T12:30:16;95548.59;;;33.15;23.34
9261;BME280;4667;42.726;23.252;2023-09-08T12:32:45;95538.19;;;33.45;23.23
9261;BME280;4667;42.726;23.252;2023-09-08T12:35:13;95544.88;;;33.83;23.38
9261;BME280;4667;42.726;23.252;2023-09-08T12:37:39;95541.78;;;34.17;22.65
9261;BME280;4667;42.726;23.252;2023-09-08T12:40:08;95544.38;;;33.28;22.55
9261;BME280;4667;42.726;23.252;2023-09-08T12:42:35;95540.47;;;32.49;23.73
9261;BME280;4667;42.726;23.252;2023-09-08T12:45:04;95548.03;;;32.15;24.32
9261;BME280;4667;42.726;23.252;2023-09-08T12:47:31;95537.69;;;31.90;24.54
9261;BME280;4667;42.726;23.252;2023-09-08T12:49:58;95545.72;;;31.35;25.04
9261;BME280;4667;42.726;23.252;2023-09-08T12:52:25;95547.53;;;30.64;26.02
9261;BME280;4667;42.726;23.252;2023-09-08T12:54:52;95544.97;;;29.98;27.41
9261;BME280;4667;42.726;23.252;2023-09-08T12:57:18;95524.28;;;29.48;27.90
9261;BME280;4667;42.726;23.252;2023-09-08T12:59:45;95545.88;;;29.18;27.86
9261;BME280;4667;42.726;23.252;2023-09-08T13:02:13;95546.22;;;29.16;29.55
9261;BME280;4667;42.726;23.252;2023-09-08T13:04:40;95544.38;;;29.63;28.67
9261;BME280;4667;42.726;23.252;2023-09-08T13:07:07;95493.09;;;29.84;27.31
9261;BME280;4667;42.726;23.252;2023-09-08T13:09:34;95546.38;;;30.38;26.95
9261;BME280;4667;42.726;23.252;2023-09-08T13:12:01;95548.28;;;30.91;26.12
9261;BME280;4667;42.726;23.252;2023-09-08T13:14:27;95538.31;;;31.36;25.26
9261;BME280;4667;42.726;23.252;2023-09-08T13:16:54;95525.72;;;32.05;24.65
9261;BME280;4667;42.726;23.252;2023-09-08T13:19:22;95513.25;;;32.08;24.19
9261;BME280;4667;42.726;23.252;2023-09-08T13:21:49;95533.03;;;32.42;24.24
9261;BME280;4667;42.726;23.252;2023-09-08T13:24:15;95527.34;;;32.72;23.43
9261;BME280;4667;42.726;23.252;2023-09-08T13:26:42;95519.59;;;32.23;23.72
9261;BME280;4667;42.726;23.252;2023-09-08T13:29:09;95463.56;;;30.99;24.87
9261;BME280;4667;42.726;23.252;2023-09-08T13:31:35;95525.72;;;30.90;25.56
9261;BME280;4667;42.726;23.252;2023-09-08T13:34:02;95542.63;;;30.73;25.74
9261;BME280;4667;42.726;23.252;2023-09-08T13:36:30;95517.19;;;30.65;26.26
9261;BME280;4667;42.726;23.252;2023-09-08T13:38:57;95538.19;;;30.65;25.82
9261;BME280;4667;42.726;23.252;2023-09-08T13:41:24;95533.66;;;30.72;26.49
9261;BME280;4667;42.726;23.252;2023-09-08T13:43:51;95541.38;;;30.97;25.59
9261;BME280;4667;42.726;23.252;2023-09-08T13:46:19;95505.97;;;31.00;24.77
9261;BME280;4667;42.726;23.252;2023-09-08T13:48:45;95523.94;;;31.05;25.20
9261;BME280;4667;42.726;23.252;2023-09-08T13:51:12;95538.03;;;31.48;25.29
9261;BME280;4667;42.726;23.252;2023-09-08T13:53:40;95534.94;;;31.16;25.15
9261;BME280;4667;42.726;23.252;2023-09-08T13:56:07;95531.22;;;30.94;25.43
9261;BME280;4667;42.726;23.252;2023-09-08T13:58:33;95534.78;;;31.01;25.59
9261;BME280;4667;42.726;23.252;2023-09-08T14:01:00;95538.00;;;31.11;25.06
9261;BME280;4667;42.726;23.252;2023-09-08T14:03:28;95534.94;;;31.16;24.81
9261;BME280;4667;42.726;23.252;2023-09-08T14:05:55;95517.09;;;31.18;25.31
9261;BME280;4667;42.726;23.252;2023-09-08T14:08:21;95482.50;;;30.89;25.87
9261;BME280;4667;42.726;23.252;2023-09-08T14:10:49;95540.66;;;31.37;25.54
9261;BME280;4667;42.726;23.252;2023-09-08T14:13:16;95533.28;;;31.04;25.60
9261;BME280;4667;42.726;23.252;2023-09-08T14:15:43;95513.31;;;30.93;26.50
9261;BME280;4667;42.726;23.252;2023-09-08T14:18:10;95529.97;;;30.88;26.09
9261;BME280;4667;42.726;23.252;2023-09-08T14:20:36;95532.47;;;30.70;26.27
9261;BME280;4667;42.726;23.252;2023-09-08T14:23:03;95533.25;;;30.44;27.26
9261;BME280;4667;42.726;23.252;2023-09-08T14:25:31;95533.06;;;30.07;26.84
9261;BME280;4667;42.726;23.252;2023-09-08T14:27:59;95527.06;;;29.51;27.71
9261;BME280;4667;42.726;23.252;2023-09-08T14:30:28;95531.44;;;28.94;29.04
9261;BME280;4667;42.726;23.252;2023-09-08T14:32:55;95527.56;;;28.57;29.39
9261;BME280;4667;42.726;23.252;2023-09-08T14:35:22;95528.53;;;28.48;29.85
9261;BME280;4667;42.726;23.252;2023-09-08T14:37:48;95534.88;;;28.37;29.60
9261;BME280;4667;42.726;23.252;2023-09-08T14:40:15;95512.03;;;28.22;29.79
9261;BME280;4667;42.726;23.252;2023-09-08T14:42:42;95427.72;;;27.76;30.14
9261;BME280;4667;42.726;23.252;2023-09-08T14:45:11;95525.53;;;28.54;29.64
9261;BME280;4667;42.726;23.252;2023-09-08T14:47:37;95519.53;;;28.44;30.18
9261;BME280;4667;42.726;23.252;2023-09-08T14:50:05;95526.09;;;28.28;29.91
9261;BME280;4667;42.726;23.252;2023-09-08T14:52:32;95528.03;;;28.27;29.66
9261;BME280;4667;42.726;23.252;2023-09-08T14:54:58;95522.69;;;28.46;29.81
9261;BME280;4667;42.726;23.252;2023-09-08T14:57:25;95519.88;;;28.43;29.22
9261;BME280;4667;42.726;23.252;2023-09-08T14:59:52;95517.16;;;28.43;29.54
9261;BME280;4667;42.726;23.252;2023-09-08T15:02:22;95516.22;;;28.35;29.69
9261;BME280;4667;42.726;23.252;2023-09-08T15:04:48;95508.38;;;28.14;29.80
9261;BME280;4667;42.726;23.252;2023-09-08T15:07:15;95506.88;;;28.17;30.14
9261;BME280;4667;42.726;23.252;2023-09-08T15:09:42;95505.72;;;28.34;30.17
9261;BME280;4667;42.726;23.252;2023-09-08T15:12:09;95517.03;;;28.36;29.83
9261;BME280;4667;42.726;23.252;2023-09-08T15:14:35;95522.16;;;28.25;29.96
9261;BME280;4667;42.726;23.252;2023-09-08T15:17:02;95529.09;;;28.22;30.10
9261;BME280;4667;42.726;23.252;2023-09-08T15:19:30;95524.13;;;28.09;29.92
9261;BME280;4667;42.726;23.252;2023-09-08T15:21:58;95520.38;;;27.97;30.47
9261;BME280;4667;42.726;23.252;2023-09-08T15:24:25;95526.44;;;27.75;30.93
9261;BME280;4667;42.726;23.252;2023-09-08T15:26:51;95513.53;;;27.40;31.53
9261;BME280;4667;42.726;23.252;2023-09-08T15:29:18;95429.03;;;26.75;31.24
9261;BME280;4667;42.726;23.252;2023-09-08T15:31:46;95519.34;;;27.27;31.51
9261;BME280;4667;42.726;23.252;2023-09-08T15:34:13;95513.81;;;27.07;31.86
9261;BME280;4667;42.726;23.252;2023-09-08T15:36:42;95519.00;;;27.00;31.62
9261;BME280;4667;42.726;23.252;2023-09-08T15:39:08;95480.56;;;26.66;32.03
9261;BME280;4667;42.726;23.252;2023-09-08T15:41:35;95498.16;;;26.73;32.15
9261;BME280;4667;42.726;23.252;2023-09-08T15:44:02;95515.31;;;26.64;32.57
9261;BME280;4667;42.726;23.252;2023-09-08T15:46:29;95490.91;;;26.36;32.72
9261;BME280;4667;42.726;23.252;2023-09-08T15:48:55;95516.03;;;26.37;33.00
9261;BME280;4667;42.726;23.252;2023-09-08T15:51:22;95514.34;;;26.20;33.33
9261;BME280;4667;42.726;23.252;2023-09-08T15:53:50;95517.75;;;26.17;33.66
9261;BME280;4667;42.726;23.252;2023-09-08T15:56:17;95498.28;;;25.87;33.66
9261;BME280;4667;42.726;23.252;2023-09-08T15:58:43;95413.94;;;25.32;34.01
9261;BME280;4667;42.726;23.252;2023-09-08T16:01:10;95511.22;;;25.93;34.11
9261;BME280;4667;42.726;23.252;2023-09-08T16:03:37;95514.28;;;25.92;34.11
9261;BME280;4667;42.726;23.252;2023-09-08T16:06:04;95460.44;;;25.50;34.43
9261;BME280;4667;42.726;23.252;2023-09-08T16:08:31;95483.16;;;25.61;34.63
9261;BME280;4667;42.726;23.252;2023-09-08T16:11:01;95510.09;;;25.70;34.77
9261;BME280;4667;42.726;23.252;2023-09-08T16:13:27;95517.41;;;25.70;34.89
9261;BME280;4667;42.726;23.252;2023-09-08T16:15:54;95507.91;;;25.63;35.25
9261;BME280;4667;42.726;23.252;2023-09-08T16:18:21;95465.59;;;25.31;35.04
9261;BME280;4667;42.726;23.252;2023-09-08T16:20:48;95487.41;;;25.38;35.36
9261;BME280;4667;42.726;23.252;2023-09-08T16:23:14;95509.72;;;25.47;35.79
9261;BME280;4667;42.726;23.252;2023-09-08T16:25:41;95504.19;;;25.44;35.79
9261;BME280;4667;42.726;23.252;2023-09-08T16:28:09;95498.19;;;25.26;36.54
9261;BME280;4667;42.726;23.252;2023-09-08T16:30:36;95505.03;;;25.23;36.17
9261;BME280;4667;42.726;23.252;2023-09-08T16:33:03;95510.22;;;25.16;36.76
9261;BME280;4667;42.726;23.252;2023-09-08T16:35:30;95499.97;;;25.09;36.19
9261;BME280;4667;42.726;23.252;2023-09-08T16:37:56;95504.56;;;25.09;36.69
9261;BME280;4667;42.726;23.252;2023-09-08T16:40:23;95514.50;;;24.96;36.68
9261;BME280;4667;42.726;23.252;2023-09-08T16:42:51;95510.06;;;24.79;37.35
9261;BME280;4667;42.726;23.252;2023-09-08T16:45:19;95514.66;;;24.79;37.76
9261;BME280;4667;42.726;23.252;2023-09-08T16:47:45;95516.09;;;24.76;37.53
9261;BME280;4667;42.726;23.252;2023-09-08T16:50:12;95514.72;;;24.70;37.75
9261;BME280;4667;42.726;23.252;2023-09-08T16:52:39;95515.72;;;24.66;38.26
9261;BME280;4667;42.726;23.252;2023-09-08T16:55:06;95510.41;;;24.57;37.81
9261;BME280;4667;42.726;23.252;2023-09-08T16:57:37;95512.69;;;24.46;37.84
9261;BME280;4667;42.726;23.252;2023-09-08T17:00:05;95519.09;;;24.33;38.63
9261;BME280;4667;42.726;23.252;2023-09-08T17:02:34;95520.28;;;24.23;38.92
9261;BME280;4667;42.726;23.252;2023-09-08T17:05:01;95521.06;;;24.24;39.01
9261;BME280;4667;42.726;23.252;2023-09-08T17:07:27;95524.94;;;24.14;38.83
9261;BME280;4667;42.726;23.252;2023-09-08T17:09:54;95530.88;;;23.99;39.32
9261;BME280;4667;42.726;23.252;2023-09-08T17:12:21;95530.59;;;23.92;39.32
9261;BME280;4667;42.726;23.252;2023-09-08T17:14:47;95523.88;;;23.77;39.37
9261;BME280;4667;42.726;23.252;2023-09-08T17:17:14;95529.72;;;23.79;39.69
9261;BME280;4667;42.726;23.252;2023-09-08T17:19:42;95538.75;;;23.74;39.76
9261;BME280;4667;42.726;23.252;2023-09-08T17:22:09;95527.41;;;23.60;40.16
9261;BME280;4667;42.726;23.252;2023-09-08T17:24:36;95549.56;;;23.57;40.35
9261;BME280;4667;42.726;23.252;2023-09-08T17:27:03;95544.63;;;23.59;39.95
9261;BME280;4667;42.726;23.252;2023-09-08T17:29:30;95547.22;;;23.55;40.05
9261;BME280;4667;42.726;23.252;2023-09-08T17:31:57;95485.41;;;23.12;40.09
9261;BME280;4667;42.726;23.252;2023-09-08T17:34:24;95548.69;;;23.35;40.81
9261;BME280;4667;42.726;23.252;2023-09-08T17:36:53;95555.66;;;23.37;40.63
9261;BME280;4667;42.726;23.252;2023-09-08T17:39:21;95431.13;;;22.37;41.27
9261;BME280;4667;42.726;23.252;2023-09-08T17:41:48;95567.88;;;23.08;41.78
9261;BME280;4667;42.726;23.252;2023-09-08T17:44:14;95557.09;;;23.17;41.81
9261;BME280;4667;42.726;23.252;2023-09-08T17:46:41;95570.44;;;23.04;42.20
9261;BME280;4667;42.726;23.252;2023-09-08T17:49:08;95567.41;;;22.97;42.68
9261;BME280;4667;42.726;23.252;2023-09-08T17:51:35;95569.81;;;22.99;42.51
9261;BME280;4667;42.726;23.252;2023-09-08T17:54:03;95554.56;;;22.77;42.87
9261;BME280;4667;42.726;23.252;2023-09-08T17:56:30;95572.31;;;22.95;43.35
9261;BME280;4667;42.726;23.252;2023-09-08T17:58:57;95575.19;;;22.90;43.61
9261;BME280;4667;42.726;23.252;2023-09-08T18:01:23;95568.84;;;22.95;43.44
9261;BME280;4667;42.726;23.252;2023-09-08T18:03:50;95570.41;;;22.78;44.13
9261;BME280;4667;42.726;23.252;2023-09-08T18:06:17;95573.56;;;22.80;43.83
9261;BME280;4667;42.726;23.252;2023-09-08T18:08:43;95575.63;;;22.83;43.84
9261;BME280;4667;42.726;23.252;2023-09-08T18:11:11;95586.69;;;22.73;44.67
9261;BME280;4667;42.726;23.252;2023-09-08T18:13:42;95518.19;;;22.27;44.91
9261;BME280;4667;42.726;23.252;2023-09-08T18:16:08;95568.16;;;22.46;45.29
9261;BME280;4667;42.726;23.252;2023-09-08T18:18:35;95498.50;;;21.92;45.24
9261;BME280;4667;42.726;23.252;2023-09-08T18:21:02;95591.72;;;22.49;45.33
9261;BME280;4667;42.726;23.252;2023-09-08T18:23:29;95592.06;;;22.47;45.58
9261;BME280;4667;42.726;23.252;2023-09-08T18:25:56;95486.13;;;21.74;45.83
9261;BME280;4667;42.726;23.252;2023-09-08T18:28:24;95591.09;;;22.43;45.53
9261;BME280;4667;42.726;23.252;2023-09-08T18:30:51;95588.84;;;22.37;45.95
9261;BME280;4667;42.726;23.252;2023-09-08T18:33:18;95595.16;;;22.23;46.30
9261;BME280;4667;42.726;23.252;2023-09-08T18:35:45;95591.03;;;22.26;46.67
9261;BME280;4667;42.726;23.252;2023-09-08T18:38:12;95233.00;;;19.93;46.83
9261;BME280;4667;42.726;23.252;2023-09-08T18:40:45;95588.06;;;22.27;46.55
9261;BME280;4667;42.726;23.252;2023-09-08T18:43:13;95163.88;;;19.42;46.84
9261;BME280;4667;42.726;23.252;2023-09-08T18:45:42;95376.25;;;20.81;46.92
9261;BME280;4667;42.726;23.252;2023-09-08T18:48:09;95588.94;;;22.14;47.45
9261;BME280;4667;42.726;23.252;2023-09-08T18:50:35;95605.97;;;22.10;47.06
9261;BME280;4667;42.726;23.252;2023-09-08T18:53:02;95470.78;;;21.26;47.42
9261;BME280;4667;42.726;23.252;2023-09-08T18:55:29;95441.31;;;21.03;47.70
9261;BME280;4667;42.726;23.252;2023-09-08T18:57:56;95524.63;;;21.61;47.50
9261;BME280;4667;42.726;23.252;2023-09-08T19:00:23;95533.81;;;21.68;47.33
9261;BME280;4667;42.726;23.252;2023-09-08T19:02:51;95531.63;;;21.70;47.51
9261;BME280;4667;42.726;23.252;2023-09-08T19:05:18;95430.44;;;21.09;47.27
9261;BME280;4667;42.726;23.252;2023-09-08T19:07:45;95594.13;;;22.02;47.64
9261;BME280;4667;42.726;23.252;2023-09-08T19:10:13;95170.44;;;19.36;47.78
9261;BME280;4667;42.726;23.252;2023-09-08T19:12:40;95199.50;;;19.51;47.77
9261;BME280;4667;42.726;23.252;2023-09-08T19:15:08;95597.72;;;21.97;48.49
9261;BME280;4667;42.726;23.252;2023-09-08T19:17:35;95473.78;;;21.24;47.94
9261;BME280;4667;42.726;23.252;2023-09-08T19:20:11;95598.97;;;22.00;47.59
9261;BME280;4667;42.726;23.252;2023-09-08T19:22:38;95501.94;;;21.36;48.70
9261;BME280;4667;42.726;23.252;2023-09-08T19:25:05;95492.50;;;21.16;48.84
9261;BME280;4667;42.726;23.252;2023-09-08T19:27:33;95594.94;;;21.80;49.17
9261;BME280;4667;42.726;23.252;2023-09-08T19:29:59;95444.69;;;20.78;49.21
9261;BME280;4667;42.726;23.252;2023-09-08T19:32:26;95591.28;;;21.67;49.67
9261;BME280;4667;42.726;23.252;2023-09-08T19:34:54;95589.84;;;21.61;50.17
9261;BME280;4667;42.726;23.252;2023-09-08T19:37:22;95260.75;;;19.39;50.48
9261;BME280;4667;42.726;23.252;2023-09-08T19:39:49;95592.28;;;21.49;50.33
9261;BME280;4667;42.726;23.252;2023-09-08T19:42:16;95519.97;;;20.90;50.68
9261;BME280;4667;42.726;23.252;2023-09-08T19:44:43;95579.66;;;21.27;51.24
9261;BME280;4667;42.726;23.252;2023-09-08T19:47:10;95242.34;;;18.87;51.62
9261;BME280;4667;42.726;23.252;2023-09-08T19:49:38;95590.03;;;21.20;51.49
9261;BME280;4667;42.726;23.252;2023-09-08T19:52:08;95565.56;;;20.76;52.04
9261;BME280;4667;42.726;23.252;2023-09-08T19:54:36;95342.28;;;19.41;51.81
9261;BME280;4667;42.726;23.252;2023-09-08T19:57:04;95599.25;;;21.05;52.04
9261;BME280;4667;42.726;23.252;2023-09-08T19:59:31;95184.19;;;18.29;51.89
9261;BME280;4667;42.726;23.252;2023-09-08T20:01:58;95428.41;;;19.80;52.63
9261;BME280;4667;42.726;23.252;2023-09-08T20:04:25;95595.19;;;20.71;52.87
9261;BME280;4667;42.726;23.252;2023-09-08T20:06:52;95372.09;;;19.21;52.55
9261;BME280;4667;42.726;23.252;2023-09-08T20:09:19;95464.69;;;19.58;53.05
9261;BME280;4667;42.726;23.252;2023-09-08T20:11:47;95532.56;;;20.17;52.87
9261;BME280;4667;42.726;23.252;2023-09-08T20:14:15;95384.78;;;19.15;51.10
9261;BME280;4667;42.726;23.252;2023-09-08T20:16:42;95460.94;;;19.73;50.89
9261;BME280;4667;42.726;23.252;2023-09-08T20:19:08;95610.56;;;20.80;50.38
9261;BME280;4667;42.726;23.252;2023-09-08T20:21:35;95521.81;;;20.31;50.16
9261;BME280;4667;42.726;23.252;2023-09-08T20:24:02;95352.09;;;19.18;49.84
9261;BME280;4667;42.726;23.252;2023-09-08T20:26:31;95548.47;;;20.64;49.66
9261;BME280;4667;42.726;23.252;2023-09-08T20:29:00;95566.25;;;20.60;50.08
9261;BME280;4667;42.726;23.252;2023-09-08T20:31:27;95618.00;;;21.05;49.68
9261;BME280;4667;42.726;23.252;2023-09-08T20:33:54;95612.34;;;21.07;49.50
9261;BME280;4667;42.726;23.252;2023-09-08T20:36:21;95607.44;;;21.09;49.54
9261;BME280;4667;42.726;23.252;2023-09-08T20:38:48;95617.38;;;21.08;50.24
9261;BME280;4667;42.726;23.252;2023-09-08T20:41:15;95377.19;;;19.59;49.95
9261;BME280;4667;42.726;23.252;2023-09-08T20:43:41;95403.97;;;19.72;49.70
9261;BME280;4667;42.726;23.252;2023-09-08T20:46:10;95616.31;;;21.09;50.04
9261;BME280;4667;42.726;23.252;2023-09-08T20:48:38;95602.63;;;20.97;49.98
9261;BME280;4667;42.726;23.252;2023-09-08T20:51:06;95615.50;;;21.09;49.94
9261;BME280;4667;42.726;23.252;2023-09-08T20:53:35;95618.50;;;21.07;50.34
9261;BME280;4667;42.726;23.252;2023-09-08T20:56:02;95488.53;;;20.23;50.06
9261;BME280;4667;42.726;23.252;2023-09-08T20:58:32;95418.25;;;19.68;50.02
9261;BME280;4667;42.726;23.252;2023-09-08T21:00:59;95175.53;;;17.91;50.48
9261;BME280;4667;42.726;23.252;2023-09-08T21:03:29;95258.44;;;18.41;50.62
9261;BME280;4667;42.726;23.252;2023-09-08T21:05:57;95473.75;;;19.76;50.78
9261;BME280;4667;42.726;23.252;2023-09-08T21:08:24;95252.69;;;18.48;50.63
9261;BME280;4667;42.726;23.252;2023-09-08T21:10:54;95254.09;;;18.45;50.85